Terminal Aerodrome Forecast
Issued by NWS Detroit/Pontiac, MI

Home | Current Version | Previous Version | Text Only | Print | Product List | Glossary On
Versions: 1 2 3 4 5 6 7 8 9 10 11 12 13 14 15 16 17 18 19 20 21 22 23 24 25 26 27 28 29 30 31
000
FTUS43 KDTX 251503 AAB
TAFDTW
TAF AMD
KDTW 251503Z 2515/2618 24013G20KT P6SM OVC025
     FM252300 22010KT P6SM SCT025 BKN035
     FM260400 20006KT P6SM SCT035
     FM261400 19011KT P6SM BKN150=

USA.gov is the U.S. government's official web portal to all federal, state and local government web resources and services.